createdAt,value
2019-03-23T08:32:52.719Z,20.00
2019-03-23T08:35:21.470Z,19.00
2019-03-23T08:37:50.113Z,19.60
2019-03-23T08:40:18.782Z,19.90
2019-03-23T08:42:47.437Z,19.90
2019-03-23T08:45:18.786Z,19.10
2019-03-23T08:47:47.360Z,19.40
2019-03-23T08:50:16.105Z,19.80
2019-03-23T08:52:44.709Z,21.90
2019-03-23T08:55:13.502Z,22.90
2019-03-23T08:57:42.074Z,23.60
2019-03-23T09:00:11.057Z,23.90
2019-03-23T09:02:39.873Z,23.60
2019-03-23T09:05:08.808Z,23.70
2019-03-23T09:07:37.399Z,24.00
2019-03-23T09:10:07.746Z,22.20
2019-03-23T09:12:36.464Z,24.20
2019-03-23T09:15:09.436Z,24.00
2019-03-23T09:17:38.021Z,24.40
2019-03-23T09:20:09.747Z,25.30
2019-03-23T09:22:38.334Z,25.50
2019-03-23T09:25:07.484Z,24.90
2019-03-23T09:27:36.152Z,24.60
2019-03-23T09:30:10.310Z,24.70
2019-03-23T09:32:38.874Z,23.60
2019-03-23T09:35:08.237Z,23.90
2019-03-23T09:37:38.040Z,25.70
2019-03-23T09:40:11.194Z,25.30
2019-03-23T09:42:38.197Z,25.60
2019-03-23T09:45:08.498Z,25.60
2019-03-23T09:47:37.653Z,26.70
2019-03-23T09:50:08.982Z,26.90
2019-03-23T09:52:37.659Z,26.90
2019-03-23T09:55:07.273Z,26.60
2019-03-23T09:57:35.945Z,26.40
2019-03-23T10:00:10.189Z,27.80
2019-03-23T10:02:38.789Z,26.90
2019-03-23T10:05:08.618Z,26.10
2019-03-23T10:07:37.217Z,26.70
2019-03-23T10:10:06.951Z,25.60
2019-03-23T10:12:35.624Z,27.40
2019-03-23T10:15:06.342Z,27.60
2019-03-23T10:17:35.209Z,27.30
2019-03-23T10:20:05.838Z,28.70
2019-03-23T10:22:34.436Z,28.60
2019-03-23T10:25:03.587Z,28.30
2019-03-23T10:27:32.229Z,26.50
2019-03-23T10:30:00.798Z,26.60
2019-03-23T10:32:29.402Z,28.00
2019-03-23T10:34:58.001Z,28.70
2019-03-23T10:37:26.614Z,28.80
2019-03-23T10:39:55.194Z,30.00
2019-03-23T10:42:23.784Z,30.20
2019-03-23T10:44:52.363Z,30.00
2019-03-23T10:47:20.995Z,30.30
2019-03-23T10:49:49.551Z,29.30
2019-03-23T10:52:18.165Z,29.20
2019-03-23T10:54:46.734Z,29.20
2019-03-23T10:57:15.354Z,29.30
2019-03-23T10:59:43.925Z,29.50
2019-03-23T11:02:12.538Z,30.80
2019-03-23T11:04:41.110Z,30.10
2019-03-23T11:07:09.721Z,31.00
2019-03-23T11:09:38.301Z,29.00
2019-03-23T11:12:06.898Z,30.00
2019-03-23T11:14:35.457Z,30.50
2019-03-23T11:17:04.061Z,30.40
2019-03-23T11:19:32.643Z,30.20
2019-03-23T11:22:01.464Z,29.30
2019-03-23T11:24:30.017Z,28.90
2019-03-23T11:26:58.691Z,28.50
2019-03-23T11:29:27.326Z,29.10
2019-03-23T11:31:55.989Z,28.80
2019-03-23T11:34:24.581Z,30.60
2019-03-23T11:36:53.186Z,31.20
2019-03-23T11:39:21.761Z,30.70
2019-03-23T11:41:50.360Z,29.00
2019-03-23T11:44:18.941Z,29.20
2019-03-23T11:46:47.555Z,29.30
2019-03-23T11:49:16.150Z,28.80
2019-03-23T11:51:44.765Z,29.80
2019-03-23T11:54:13.414Z,30.10
2019-03-23T11:56:42.037Z,30.20
2019-03-23T11:59:10.678Z,28.40
2019-03-23T12:01:39.290Z,28.20
2019-03-23T12:04:07.856Z,29.70
2019-03-23T12:06:36.507Z,31.20
2019-03-23T12:09:07.053Z,29.80
2019-03-23T12:11:35.625Z,29.40
2019-03-23T12:14:04.571Z,31.40
2019-03-23T12:16:33.233Z,31.10
2019-03-23T12:19:01.844Z,30.60
2019-03-23T12:21:30.415Z,28.90
2019-03-23T12:23:59.017Z,29.10
2019-03-23T12:26:27.601Z,31.50
2019-03-23T12:28:56.209Z,31.80
2019-03-23T12:31:24.785Z,31.90
2019-03-23T12:33:53.388Z,29.90
2019-03-23T13:11:05.578Z,30.10
2019-03-23T14:23:15.773Z,21.10
2019-03-23T14:27:13.140Z,21.10
2019-03-23T14:29:40.962Z,21.50
2019-03-23T14:32:08.830Z,21.40
2019-03-23T14:34:36.653Z,21.30
2019-03-23T14:37:05.235Z,21.30
2019-03-23T14:40:49.157Z,21.40
2019-03-23T14:43:17.138Z,23.50
2019-03-23T14:49:01.687Z,24.50
2019-03-23T14:51:29.956Z,25.00
2019-03-23T14:53:58.566Z,26.90
2019-03-23T14:56:31.727Z,27.90
2019-03-23T14:58:57.442Z,29.40
2019-03-23T15:01:25.963Z,29.20
2019-03-23T15:03:54.764Z,28.90
2019-03-23T15:06:23.334Z,30.40
2019-03-23T15:08:51.939Z,28.70
2019-03-23T15:11:20.521Z,28.40
2019-03-23T15:13:49.130Z,28.00
2019-03-23T15:16:17.718Z,28.50
2019-03-23T15:18:46.476Z,28.80
2019-03-23T15:21:15.298Z,27.90
2019-03-23T15:23:44.297Z,27.40
2019-03-23T15:26:13.049Z,27.60
2019-03-23T15:28:41.645Z,27.00
2019-03-23T15:31:10.228Z,26.10
2019-03-23T15:33:38.874Z,27.30
2019-03-23T15:36:07.484Z,27.20
2019-03-23T15:38:36.060Z,25.60
2019-03-23T15:41:04.793Z,24.90
2019-03-23T15:43:33.377Z,25.40
2019-03-23T15:46:02.050Z,26.90
2019-03-23T15:48:30.625Z,26.50
2019-03-23T15:50:59.234Z,24.00
2019-03-23T15:53:27.813Z,23.80
2019-03-23T15:55:56.417Z,23.90
2019-03-23T15:58:24.997Z,23.50
2019-03-23T16:00:53.597Z,24.40
2019-03-23T16:03:22.370Z,23.40
2019-03-23T16:05:51.062Z,23.50
2019-03-23T16:08:19.637Z,24.10
2019-03-23T16:10:48.238Z,23.30
2019-03-23T16:13:16.809Z,23.10
2019-03-23T16:15:45.413Z,22.90
2019-03-23T16:18:13.998Z,22.60
2019-03-23T16:20:42.651Z,23.50
2019-03-23T16:23:11.229Z,23.00
2019-03-23T16:25:39.855Z,22.80
2019-03-23T16:28:08.439Z,23.30
2019-03-23T16:30:37.057Z,22.40
2019-03-23T16:33:21.033Z,22.10
2019-03-23T16:35:49.852Z,22.00
2019-03-23T16:38:18.434Z,21.60
2019-03-23T16:40:47.046Z,21.40
2019-03-23T16:43:15.709Z,21.20
2019-03-23T16:45:44.297Z,21.40
2019-03-23T16:48:12.889Z,20.60
2019-03-23T16:50:41.498Z,20.70
2019-03-23T16:53:12.858Z,21.10
2019-03-23T16:55:41.690Z,20.50
2019-03-23T16:58:16.055Z,19.60
2019-03-23T17:00:40.919Z,18.50
2019-03-23T17:03:09.523Z,18.00
2019-03-23T17:05:38.302Z,17.40
2019-03-23T17:08:07.047Z,16.80
2019-03-23T17:10:35.788Z,16.20
2019-03-23T17:13:04.722Z,16.10
2019-03-23T17:15:33.766Z,15.80
2019-03-23T17:18:02.710Z,15.40
2019-03-23T17:20:31.362Z,15.10
2019-03-23T17:23:00.037Z,14.80
2019-03-23T17:25:28.700Z,14.50
2019-03-23T17:27:57.345Z,14.30
2019-03-23T17:30:26.059Z,14.00
2019-03-23T17:32:54.823Z,13.70
2019-03-23T17:35:23.454Z,13.60
2019-03-23T17:37:52.107Z,13.40
2019-03-23T17:40:20.803Z,13.20
2019-03-23T17:42:49.578Z,12.90
2019-03-23T17:45:18.253Z,12.70
2019-03-23T17:47:47.066Z,12.40
2019-03-23T17:50:15.750Z,12.20
2019-03-23T17:52:44.616Z,12.00
2019-03-23T17:55:13.410Z,11.90
2019-03-23T17:57:42.198Z,11.60
2019-03-23T18:00:11.735Z,11.60
2019-03-23T18:02:40.443Z,11.40
2019-03-23T18:05:12.054Z,11.20
2019-03-23T18:07:40.386Z,11.00
2019-03-23T18:10:09.642Z,10.90
2019-03-23T18:12:38.345Z,10.80
2019-03-23T18:15:08.963Z,10.70
2019-03-23T18:17:37.675Z,10.50
2019-03-23T18:20:08.130Z,10.50
2019-03-23T18:22:36.903Z,10.40
2019-03-23T18:25:05.953Z,10.40
2019-03-23T18:27:34.583Z,10.30
2019-03-23T18:30:04.744Z,10.10
2019-03-23T18:32:33.390Z,10.00
2019-03-23T18:35:03.186Z,9.90
2019-03-23T18:37:32.049Z,9.90
2019-03-23T18:40:00.772Z,9.80
2019-03-23T18:42:29.515Z,9.70
2019-03-23T18:44:58.138Z,9.60
2019-03-23T18:47:26.999Z,9.60
2019-03-23T18:49:55.638Z,9.50
2019-03-23T18:52:24.268Z,9.30
2019-03-23T18:54:52.908Z,9.20
2019-03-23T18:57:21.636Z,9.20
2019-03-23T18:59:50.242Z,9.00
2019-03-23T19:02:18.931Z,8.90
2019-03-23T19:04:49.660Z,8.90
2019-03-23T19:07:17.997Z,8.70
2019-03-23T19:09:46.607Z,8.70
2019-03-23T19:12:15.226Z,8.60
2019-03-23T19:14:43.904Z,8.60
2019-03-23T19:17:12.555Z,8.50
2019-03-23T19:19:41.168Z,8.40
2019-03-23T19:22:09.829Z,8.40
2019-03-23T19:24:38.475Z,8.30
2019-03-23T19:27:07.176Z,8.20
2019-03-23T19:29:35.779Z,8.20
2019-03-23T19:32:04.549Z,8.10
2019-03-23T19:34:33.231Z,8.10
2019-03-23T19:37:01.877Z,8.00
2019-03-23T19:39:30.514Z,7.90
2019-03-23T19:41:59.133Z,7.80
2019-03-23T19:44:27.778Z,7.70
2019-03-23T19:46:56.446Z,7.60
2019-03-23T19:49:25.242Z,7.40
